Time;durP1;ratioP1;P1;durP2;ratioP2;P2;SDS_P1;SDS_P2;PMS_P1;PMS_P2;Temp;Humidity;BMP_temperature;BMP_pressure;BME280_temperature;BME280_humidity;BME280_pressure;Samples;Min_cycle;Max_cycle;Signal;HPM_P1;HPM_P2
2023/05/29 00:02:00;;;;;;;13.18;2.63;;;;;;;11.76;100.00;102417.75;5078157;28;20053;-44
2023/05/29 00:04:26;;;;;;;18.13;2.53;;;;;;;11.75;100.00;102416.06;5082168;28;20594;-45
2023/05/29 00:06:51;;;;;;;15.18;3.13;;;;;;;11.76;100.00;102412.34;5071964;28;20107;-46
2023/05/29 00:09:17;;;;;;;25.58;2.92;;;;;;;11.77;100.00;102408.63;5078005;28;20365;-47
2023/05/29 00:11:42;;;;;;;16.65;2.97;;;;;;;11.75;100.00;102413.34;5075800;28;20073;-46
2023/05/29 00:14:07;;;;;;;23.08;4.15;;;;;;;11.73;100.00;102415.34;5071968;28;20473;-43
2023/05/29 00:16:34;;;;;;;22.02;3.38;;;;;;;11.72;100.00;102405.56;5073988;28;20077;-45
2023/05/29 00:18:59;;;;;;;17.92;3.05;;;;;;;11.69;100.00;102414.81;5087370;28;20402;-45
2023/05/29 00:21:25;;;;;;;20.65;3.45;;;;;;;11.65;100.00;102411.56;5071940;28;20035;-45
2023/05/29 00:23:50;;;;;;;22.10;3.55;;;;;;;11.67;100.00;102405.19;5071413;28;20033;-46
2023/05/29 00:26:16;;;;;;;21.40;2.90;;;;;;;11.65;100.00;102414.25;5074721;28;20156;-42
2023/05/29 00:28:42;;;;;;;17.80;3.10;;;;;;;11.64;100.00;102417.97;5072085;28;20029;-45
2023/05/29 00:31:08;;;;;;;21.25;2.50;;;;;;;11.59;100.00;102420.25;5088003;28;20035;-45
2023/05/29 00:33:33;;;;;;;27.15;3.65;;;;;;;11.56;100.00;102423.25;5091435;28;20024;-44
2023/05/29 00:35:58;;;;;;;26.05;4.25;;;;;;;11.53;100.00;102420.88;5089827;28;20028;-46
2023/05/29 00:38:24;;;;;;;17.70;2.92;;;;;;;11.51;100.00;102430.09;5089144;28;20055;-45
2023/05/29 00:40:49;;;;;;;16.25;2.85;;;;;;;11.49;100.00;102434.78;5077164;28;20470;-45
2023/05/29 00:43:15;;;;;;;20.08;3.55;;;;;;;11.51;100.00;102436.34;5085739;28;20132;-46
2023/05/29 00:45:40;;;;;;;18.48;2.95;;;;;;;11.47;100.00;102437.63;5082857;28;20024;-49
2023/05/29 00:48:06;;;;;;;29.15;3.50;;;;;;;11.42;100.00;102439.91;5071187;28;20498;-45
2023/05/29 00:50:32;;;;;;;20.88;3.15;;;;;;;11.42;100.00;102445.28;5053556;28;20039;-49
2023/05/29 00:53:00;;;;;;;32.67;3.50;;;;;;;11.39;100.00;102442.91;5072526;28;20024;-46
2023/05/29 00:55:26;;;;;;;16.45;2.58;;;;;;;11.34;100.00;102447.88;5045887;28;1078804;-46
2023/05/29 00:57:52;;;;;;;24.83;3.85;;;;;;;11.31;100.00;102442.78;5074523;28;20040;-45
2023/05/29 01:00:18;;;;;;;17.02;2.63;;;;;;;11.29;100.00;102455.56;5087996;28;20074;-44
2023/05/29 01:02:44;;;;;;;14.90;2.45;;;;;;;11.28;100.00;102454.72;5054478;28;20466;-44
2023/05/29 01:05:11;;;;;;;22.77;2.92;;;;;;;11.26;100.00;102454.00;5071055;28;20032;-46
2023/05/29 01:07:37;;;;;;;20.48;3.00;;;;;;;11.25;100.00;102456.88;5072390;28;20036;-45
2023/05/29 01:10:03;;;;;;;18.63;3.17;;;;;;;11.25;100.00;102459.56;5079750;28;20482;-46
2023/05/29 01:12:43;;;;;;;23.13;3.63;;;;;;;11.16;100.00;102456.75;5083565;28;20051;-45
2023/05/29 01:15:29;;;;;;;20.38;3.15;;;;;;;11.19;100.00;102456.47;5071978;28;20025;-45
2023/05/29 01:18:08;;;;;;;17.17;2.95;;;;;;;11.16;100.00;102462.16;5072336;28;20068;-47
2023/05/29 01:20:44;;;;;;;20.58;3.35;;;;;;;11.13;100.00;102462.41;5078015;28;20032;-43
2023/05/29 01:23:28;;;;;;;19.92;2.60;;;;;;;11.15;100.00;102460.44;5084623;28;20028;-45
2023/05/29 01:26:11;;;;;;;20.17;2.90;;;;;;;11.16;100.00;102456.75;5070924;28;20098;-44
2023/05/29 01:28:45;;;;;;;19.10;2.78;;;;;;;11.09;100.00;102461.03;5074866;28;20040;-46
2023/05/29 01:31:12;;;;;;;23.13;2.88;;;;;;;11.11;100.00;102460.84;5076665;28;20017;-45
2023/05/29 01:33:41;;;;;;;17.17;2.70;;;;;;;11.08;100.00;102459.31;5071757;28;20016;-46
2023/05/29 01:36:10;;;;;;;20.52;3.80;;;;;;;11.04;100.00;102466.00;5071286;28;20020;-47
2023/05/29 01:38:36;;;;;;;25.13;3.03;;;;;;;11.07;100.00;102467.56;5078592;28;20055;-46
2023/05/29 01:41:03;;;;;;;18.85;3.10;;;;;;;11.05;100.00;102458.75;5088779;28;20028;-46
2023/05/29 01:43:28;;;;;;;16.13;2.25;;;;;;;11.05;100.00;102458.75;5082190;28;20035;-45
2023/05/29 01:45:55;;;;;;;17.23;2.42;;;;;;;10.98;100.00;102459.34;5070731;28;20107;-47
2023/05/29 01:48:20;;;;;;;24.55;3.92;;;;;;;10.96;100.00;102461.34;5073070;28;20079;-43
2023/05/29 01:50:47;;;;;;;29.05;2.70;;;;;;;10.93;100.00;102460.78;5084016;28;20059;-49
2023/05/29 01:53:13;;;;;;;25.15;3.25;;;;;;;10.90;100.00;102466.44;5092593;28;20077;-46
2023/05/29 01:55:38;;;;;;;16.80;2.33;;;;;;;10.89;100.00;102470.13;5092596;28;20052;-47
2023/05/29 01:58:04;;;;;;;14.20;2.22;;;;;;;10.84;100.00;102473.25;5087985;28;20028;-46
2023/05/29 02:00:30;;;;;;;23.30;3.60;;;;;;;10.85;100.00;102479.47;5073006;28;20031;-43
2023/05/29 02:02:55;;;;;;;27.98;2.70;;;;;;;10.83;100.00;102471.56;5090043;28;20016;-47
2023/05/29 02:05:21;;;;;;;21.45;3.63;;;;;;;10.84;100.00;102481.31;5091574;28;20369;-45
2023/05/29 02:07:47;;;;;;;18.75;2.72;;;;;;;10.85;100.00;102474.09;5074378;28;20433;-44
2023/05/29 02:10:12;;;;;;;29.05;4.07;;;;;;;10.81;100.00;102476.22;5080899;28;20028;-45
2023/05/29 02:12:37;;;;;;;21.25;2.53;;;;;;;10.81;100.00;102478.09;5079626;28;20070;-47
2023/05/29 02:15:03;;;;;;;17.92;2.65;;;;;;;10.81;100.00;102484.31;5083513;28;20016;-44
2023/05/29 02:17:28;;;;;;;22.83;2.80;;;;;;;10.79;100.00;102480.06;5086973;28;20442;-46
2023/05/29 02:19:54;;;;;;;19.05;2.75;;;;;;;10.74;100.00;102478.66;5090905;28;20107;-43
2023/05/29 02:22:19;;;;;;;19.65;3.00;;;;;;;10.73;100.00;102476.09;5085419;28;20062;-44
2023/05/29 02:24:44;;;;;;;18.83;3.03;;;;;;;10.71;100.00;102478.94;5070929;28;20021;-44
2023/05/29 02:27:10;;;;;;;25.60;3.20;;;;;;;10.73;100.00;102470.72;5073552;28;20116;-47
2023/05/29 02:29:35;;;;;;;22.77;2.90;;;;;;;10.65;100.00;102473.28;5088454;28;20130;-47
2023/05/29 02:32:01;;;;;;;18.67;2.83;;;;;;;10.67;100.00;102477.53;5086199;28;20016;-46
2023/05/29 02:34:26;;;;;;;19.63;2.40;;;;;;;10.64;100.00;102477.81;5074967;28;20034;-44
2023/05/29 02:36:52;;;;;;;19.20;2.88;;;;;;;10.63;100.00;102476.09;5080484;28;20467;-43
2023/05/29 02:39:18;;;;;;;29.27;3.38;;;;;;;10.62;100.00;102473.56;5081677;28;20027;-44
2023/05/29 02:41:43;;;;;;;25.17;3.20;;;;;;;10.60;100.00;102475.53;5072833;28;20283;-45
2023/05/29 02:44:09;;;;;;;21.50;2.70;;;;;;;10.58;100.00;102483.75;5072580;28;20067;-44
2023/05/29 02:46:34;;;;;;;14.95;2.45;;;;;;;10.55;100.00;102475.97;5080859;28;20031;-46
2023/05/29 02:48:59;;;;;;;15.88;2.55;;;;;;;10.54;100.00;102482.34;5086584;28;20127;-45
2023/05/29 02:51:25;;;;;;;26.95;3.40;;;;;;;10.55;100.00;102484.03;5070253;28;20039;-43
2023/05/29 02:53:50;;;;;;;23.08;2.63;;;;;;;10.52;100.00;102478.94;5066207;28;20190;-43
2023/05/29 02:56:16;;;;;;;23.70;2.60;;;;;;;10.50;100.00;102484.47;5055953;28;20398;-43
2023/05/29 02:58:41;;;;;;;24.13;3.35;;;;;;;10.53;100.00;102478.81;5082883;28;20031;-45
2023/05/29 03:01:07;;;;;;;16.58;2.70;;;;;;;10.50;100.00;102479.06;5079595;28;20557;-43
2023/05/29 03:03:33;;;;;;;20.40;2.45;;;;;;;10.49;100.00;102481.94;5080395;28;20034;-47
2023/05/29 03:05:58;;;;;;;22.95;2.58;;;;;;;10.45;100.00;102472.41;5067162;28;20028;-45
2023/05/29 03:08:25;;;;;;;16.25;2.53;;;;;;;10.45;100.00;102483.19;5074053;28;20027;-43
2023/05/29 03:10:51;;;;;;;20.50;2.30;;;;;;;10.44;100.00;102486.88;5070252;28;20040;-44
2023/05/29 03:13:18;;;;;;;24.10;2.88;;;;;;;10.40;100.00;102485.44;5070515;28;20032;-44
2023/05/29 03:15:44;;;;;;;30.25;3.88;;;;;;;10.41;100.00;102488.00;5076475;28;20031;-45
2023/05/29 03:18:09;;;;;;;24.10;3.75;;;;;;;10.43;100.00;102490.56;5088930;28;20020;-45
2023/05/29 03:20:35;;;;;;;22.58;3.08;;;;;;;10.41;100.00;102479.09;5083496;28;20036;-45
2023/05/29 03:23:00;;;;;;;20.67;3.22;;;;;;;10.38;100.00;102472.16;5073488;28;20016;-44
2023/05/29 03:25:26;;;;;;;22.25;2.47;;;;;;;10.38;100.00;102471.31;5071049;28;20035;-43
2023/05/29 03:27:51;;;;;;;20.77;2.50;;;;;;;10.41;100.00;102481.78;5090495;28;20219;-43
2023/05/29 03:30:16;;;;;;;26.75;3.95;;;;;;;10.38;100.00;102477.53;5082946;28;20028;-46
2023/05/29 03:32:42;;;;;;;17.98;2.00;;;;;;;10.33;100.00;102477.94;5074252;28;20028;-44
2023/05/29 03:35:07;;;;;;;21.70;2.97;;;;;;;10.32;100.00;102468.19;5088206;28;20024;-43
2023/05/29 03:37:33;;;;;;;20.63;2.45;;;;;;;10.32;100.00;102468.19;5078919;28;20024;-47
2023/05/29 03:39:59;;;;;;;24.70;2.50;;;;;;;10.32;100.00;102465.50;5077681;28;20099;-44
2023/05/29 03:42:25;;;;;;;15.75;2.15;;;;;;;10.31;100.00;102469.16;5077194;28;20073;-45
2023/05/29 03:44:50;;;;;;;20.27;2.95;;;;;;;10.30;100.00;102477.38;5089703;28;20029;-44
2023/05/29 03:47:16;;;;;;;17.70;2.80;;;;;;;10.31;100.00;102477.22;5088620;28;20048;-45
2023/05/29 03:49:41;;;;;;;17.60;3.05;;;;;;;10.28;100.00;102485.59;5074632;28;20494;-45
2023/05/29 03:52:06;;;;;;;20.60;2.80;;;;;;;10.28;100.00;102487.44;5062564;28;20025;-44
2023/05/29 03:54:32;;;;;;;26.35;4.15;;;;;;;10.28;100.00;102496.34;5072157;28;20049;-44
2023/05/29 03:56:58;;;;;;;24.23;2.92;;;;;;;10.28;100.00;102490.97;5074231;28;20024;-48
2023/05/29 03:59:23;;;;;;;25.42;2.88;;;;;;;10.28;100.00;102496.34;5055457;28;20111;-46
2023/05/29 04:01:48;;;;;;;24.45;2.78;;;;;;;10.28;100.00;102493.66;5072738;28;20162;-43
2023/05/29 04:04:15;;;;;;;15.63;2.58;;;;;;;10.25;100.00;102504.66;5072001;28;20029;-46
2023/05/29 04:06:41;;;;;;;24.83;2.80;;;;;;;10.26;100.00;102500.97;5081018;28;20032;-44
2023/05/29 04:09:06;;;;;;;21.17;2.70;;;;;;;10.28;100.00;102503.56;5092975;28;20027;-48
2023/05/29 04:11:34;;;;;;;25.10;2.65;;;;;;;10.29;100.00;102506.13;5067627;28;20572;-44
2023/05/29 04:14:00;;;;;;;19.27;2.45;;;;;;;10.33;100.00;102498.63;5083988;28;20051;-47
2023/05/29 04:16:25;;;;;;;20.42;2.63;;;;;;;10.36;100.00;102494.81;5087136;28;20111;-45
2023/05/29 04:18:51;;;;;;;18.75;2.70;;;;;;;10.39;100.00;102497.22;5081704;28;20508;-45
2023/05/29 04:21:16;;;;;;;24.02;2.88;;;;;;;10.38;100.00;102498.22;5082896;28;20059;-45
2023/05/29 04:23:41;;;;;;;20.08;2.40;;;;;;;10.40;100.00;102498.91;5083868;28;20025;-46
2023/05/29 04:26:07;;;;;;;18.80;2.85;;;;;;;10.44;100.00;102505.72;5085752;28;20098;-48
2023/05/29 04:28:32;;;;;;;15.07;2.38;;;;;;;10.46;100.00;102501.06;5090888;28;20133;-46
2023/05/29 04:30:58;;;;;;;20.73;2.75;;;;;;;10.47;100.00;102500.06;5087682;28;20028;-43
2023/05/29 04:33:24;;;;;;;27.35;3.78;;;;;;;10.48;100.00;102493.69;5070670;28;20120;-44
2023/05/29 04:35:50;;;;;;;18.27;2.70;;;;;;;10.50;100.00;102500.59;5071182;28;20473;-44
2023/05/29 04:38:15;;;;;;;19.73;2.85;;;;;;;10.53;100.00;102512.94;5072793;28;20039;-45
2023/05/29 04:40:43;;;;;;;22.13;2.85;;;;;;;10.57;100.00;102513.53;5090642;28;20107;-45
2023/05/29 04:43:09;;;;;;;20.38;2.72;;;;;;;10.56;100.00;102523.44;5091404;28;20027;-43
2023/05/29 04:45:36;;;;;;;32.25;3.50;;;;;;;10.60;100.00;102522.16;5079578;28;20036;-44
2023/05/29 04:48:02;;;;;;;21.30;3.45;;;;;;;10.62;100.00;102522.88;5071301;28;20036;-44
2023/05/29 04:50:30;;;;;;;20.80;2.30;;;;;;;10.65;100.00;102516.34;5079743;28;20412;-44
2023/05/29 04:52:57;;;;;;;16.20;2.75;;;;;;;10.73;100.00;102528.13;5069752;28;20040;-44
2023/05/29 04:55:22;;;;;;;21.35;3.72;;;;;;;10.77;100.00;102526.84;5077687;28;20056;-44
2023/05/29 04:57:48;;;;;;;21.02;3.20;;;;;;;10.85;100.00;102526.16;5087923;28;20394;-45
2023/05/29 05:00:14;;;;;;;22.55;3.08;;;;;;;10.93;100.00;102530.81;5084541;28;20059;-43
2023/05/29 05:02:43;;;;;;;14.93;2.42;;;;;;;11.01;100.00;102532.81;5068657;28;20040;-45
2023/05/29 05:05:09;;;;;;;21.42;3.22;;;;;;;11.08;100.00;102532.06;5074881;28;20546;-44
2023/05/29 05:07:34;;;;;;;16.90;2.08;;;;;;;11.12;100.00;102536.19;5082282;28;20032;-46
2023/05/29 05:10:00;;;;;;;17.63;3.05;;;;;;;11.17;100.00;102539.28;5088822;28;20031;-46
2023/05/29 05:12:25;;;;;;;21.35;2.55;;;;;;;11.23;100.00;102532.47;5090257;28;20118;-45
2023/05/29 05:14:50;;;;;;;21.67;2.63;;;;;;;11.28;100.00;102529.34;5086199;28;20036;-45
2023/05/29 05:17:16;;;;;;;13.15;2.03;;;;;;;11.33;100.00;102529.75;5068891;28;20031;-43
2023/05/29 05:19:42;;;;;;;15.32;1.98;;;;;;;11.33;100.00;102529.75;5085764;28;20063;-45
2023/05/29 05:22:07;;;;;;;25.73;2.75;;;;;;;11.41;100.00;102535.28;5088517;28;20043;-46
2023/05/29 05:24:34;;;;;;;17.30;2.22;;;;;;;11.48;100.00;102538.22;5087367;28;20032;-46
2023/05/29 05:26:59;;;;;;;16.65;2.70;;;;;;;11.51;100.00;102540.66;5074790;28;20027;-45
2023/05/29 05:29:25;;;;;;;21.70;2.83;;;;;;;11.58;100.00;102531.78;5088872;28;20458;-44
2023/05/29 05:31:50;;;;;;;20.15;2.58;;;;;;;11.61;100.00;102536.03;5071282;28;20110;-48
2023/05/29 05:34:16;;;;;;;26.58;2.63;;;;;;;11.63;100.00;102534.91;5090431;28;20541;-44
2023/05/29 05:36:42;;;;;;;17.35;2.65;;;;;;;11.62;100.00;102538.59;5088280;28;20051;-45
2023/05/29 05:39:08;;;;;;;18.42;2.60;;;;;;;11.64;100.00;102542.00;5070117;28;20069;-46
2023/05/29 05:41:33;;;;;;;21.10;2.40;;;;;;;11.64;100.00;102536.63;5070036;28;20037;-43
2023/05/29 05:43:58;;;;;;;28.92;3.15;;;;;;;11.66;100.00;102544.53;5069893;28;20340;-45
2023/05/29 05:46:24;;;;;;;14.43;2.30;;;;;;;11.71;100.00;102544.09;5081737;28;20040;-46
2023/05/29 05:48:50;;;;;;;26.73;3.00;;;;;;;11.84;100.00;102550.03;5084232;28;20034;-47
2023/05/29 05:51:15;;;;;;;21.58;2.97;;;;;;;11.93;100.00;102541.06;5078743;28;20031;-47
2023/05/29 05:53:40;;;;;;;29.42;3.42;;;;;;;12.01;100.00;102545.72;5087698;28;20032;-44
2023/05/29 05:56:06;;;;;;;23.90;3.38;;;;;;;12.09;100.00;102537.72;5086020;28;20043;-46
2023/05/29 05:58:31;;;;;;;24.13;3.55;;;;;;;12.10;100.00;102544.81;5088436;28;20374;-45
2023/05/29 06:00:57;;;;;;;21.40;3.15;;;;;;;12.16;100.00;102537.97;5076726;28;20040;-45
2023/05/29 06:03:22;;;;;;;21.20;2.75;;;;;;;12.32;100.00;102551.63;5087343;28;20161;-44
2023/05/29 06:05:48;;;;;;;16.90;2.88;;;;;;;12.48;100.00;102545.56;5081828;28;20036;-46
2023/05/29 06:08:15;;;;;;;22.83;2.90;;;;;;;12.60;100.00;102548.91;5069232;28;20036;-46
2023/05/29 06:10:40;;;;;;;19.00;2.50;;;;;;;12.68;100.00;102552.53;5067945;28;20500;-48
2023/05/29 06:13:05;;;;;;;19.73;2.65;;;;;;;12.80;100.00;102555.03;5069380;28;20036;-46
2023/05/29 06:15:31;;;;;;;21.73;2.63;;;;;;;12.99;100.00;102560.25;5070516;28;20312;-47
2023/05/29 06:17:56;;;;;;;19.42;3.20;;;;;;;13.27;100.00;102552.03;5070583;28;20722;-48
2023/05/29 06:20:23;;;;;;;29.67;3.72;;;;;;;13.52;100.00;102551.22;5052479;28;20382;-47
2023/05/29 06:22:50;;;;;;;23.33;3.05;;;;;;;13.82;100.00;102549.88;5070006;28;20154;-46
2023/05/29 06:25:18;;;;;;;22.80;3.30;;;;;;;14.03;100.00;102554.88;5082508;28;20036;-46
2023/05/29 06:27:43;;;;;;;;;;;;;;;14.16;100.00;102551.69;5062653;28;20075;-48
2023/05/29 06:30:10;;;;;;;24.30;3.08;;;;;;;14.35;100.00;102549.72;5067100;28;20353;-46
2023/05/29 06:32:35;;;;;;;18.40;2.88;;;;;;;14.47;100.00;102545.69;5084249;28;20516;-46
2023/05/29 06:35:01;;;;;;;17.02;2.58;;;;;;;14.56;100.00;102544.72;5083750;28;20048;-48
2023/05/29 06:37:26;;;;;;;13.57;2.22;;;;;;;14.62;100.00;102552.19;5082518;28;20390;-42
2023/05/29 06:39:51;;;;;;;17.58;3.38;;;;;;;14.85;100.00;102549.69;5081522;28;20027;-47
2023/05/29 06:42:17;;;;;;;22.05;3.10;;;;;;;14.95;100.00;102549.50;5083445;28;20036;-44
2023/05/29 06:44:42;;;;;;;21.83;3.00;;;;;;;15.19;100.00;102548.63;5081465;28;20047;-46
2023/05/29 06:47:08;;;;;;;15.32;2.78;;;;;;;15.32;100.00;102554.41;5080688;28;20701;-47
2023/05/29 06:49:34;;;;;;;17.77;3.40;;;;;;;15.40;100.00;102552.69;5083294;28;20036;-47
2023/05/29 06:52:00;;;;;;;18.55;3.10;;;;;;;15.30;100.00;102548.31;5083440;28;20073;-46
2023/05/29 06:54:25;;;;;;;23.80;2.63;;;;;;;15.49;100.00;102554.38;5082102;28;20032;-46
2023/05/29 06:56:50;;;;;;;15.73;3.10;;;;;;;16.08;100.00;102562.19;5083557;28;20059;-48
2023/05/29 06:59:16;;;;;;;17.50;2.28;;;;;;;16.61;95.18;102568.69;5082628;28;20462;-45
2023/05/29 07:01:41;;;;;;;11.77;2.65;;;;;;;17.13;94.05;102562.56;5086115;28;20106;-45
2023/05/29 07:04:06;;;;;;;16.67;3.00;;;;;;;17.81;89.90;102562.59;5082013;28;20056;-46
2023/05/29 07:06:33;;;;;;;14.48;2.80;;;;;;;18.08;86.14;102561.91;5079894;28;20574;-46
2023/05/29 07:08:59;;;;;;;10.27;2.33;;;;;;;18.43;83.39;102564.81;5075577;28;20445;-46
2023/05/29 07:11:26;;;;;;;15.65;2.58;;;;;;;18.41;82.97;102561.47;5076907;28;20386;-44
2023/05/29 07:13:52;;;;;;;16.35;3.15;;;;;;;18.69;80.86;102560.72;5077966;28;20028;-47
2023/05/29 07:16:18;;;;;;;12.82;2.63;;;;;;;19.17;78.90;102563.69;5082038;28;20028;-46
2023/05/29 07:18:44;;;;;;;15.52;3.08;;;;;;;19.42;76.47;102567.69;5084307;28;20050;-48
2023/05/29 07:21:10;;;;;;;13.02;2.13;;;;;;;19.47;76.24;102578.84;5081592;28;20186;-46
2023/05/29 07:23:35;;;;;;;13.52;2.83;;;;;;;19.71;75.01;102579.47;5081763;28;20024;-46
2023/05/29 07:26:01;;;;;;;12.85;2.80;;;;;;;19.94;73.88;102577.31;5078194;28;20021;-44
2023/05/29 07:28:26;;;;;;;14.15;2.58;;;;;;;20.18;72.48;102565.00;5083478;28;20111;-45
2023/05/29 07:30:51;;;;;;;14.40;2.33;;;;;;;20.16;71.50;102575.28;5085728;28;20051;-46
2023/05/29 07:33:17;;;;;;;11.60;2.58;;;;;;;20.29;72.32;102582.72;5082675;28;20035;-46
2023/05/29 07:35:42;;;;;;;16.10;2.35;;;;;;;20.56;70.54;102583.69;5083956;28;20052;-45
2023/05/29 07:38:07;;;;;;;16.00;3.03;;;;;;;20.89;69.39;102593.03;5086220;28;20024;-46
2023/05/29 07:40:33;;;;;;;7.50;2.45;;;;;;;21.24;67.24;102586.28;5087012;28;20051;-47
2023/05/29 07:42:58;;;;;;;11.82;2.45;;;;;;;21.33;66.51;102586.06;5083969;28;20560;-44
2023/05/29 07:45:23;;;;;;;11.68;2.88;;;;;;;21.13;66.02;102584.19;5078341;28;20489;-45
2023/05/29 07:47:49;;;;;;;12.25;2.47;;;;;;;20.76;66.56;102581.00;5081052;28;20469;-46
2023/05/29 07:50:14;;;;;;;8.60;2.40;;;;;;;20.22;67.34;102584.59;5081402;28;20549;-45
2023/05/29 07:52:40;;;;;;;11.05;2.25;;;;;;;20.12;68.52;102582.22;5086322;28;20036;-48
2023/05/29 07:55:05;;;;;;;13.48;2.97;;;;;;;20.35;68.59;102583.78;5084558;28;20119;-46
2023/05/29 07:57:31;;;;;;;11.15;2.40;;;;;;;20.54;66.88;102584.94;5085468;28;20099;-46
2023/05/29 07:59:56;;;;;;;11.75;3.05;;;;;;;20.68;66.95;102585.81;5085188;28;20031;-47
2023/05/29 08:02:22;;;;;;;11.07;2.20;;;;;;;21.02;66.02;102593.88;5086034;28;20047;-44
2023/05/29 08:04:47;;;;;;;10.65;2.30;;;;;;;21.40;65.13;102589.69;5085677;28;20036;-45
2023/05/29 08:07:12;;;;;;;11.85;2.25;;;;;;;21.61;63.39;102603.16;5084151;28;20815;-46
2023/05/29 08:09:38;;;;;;;13.95;2.90;;;;;;;21.64;61.10;102605.50;5067767;28;20040;-46
2023/05/29 08:12:03;;;;;;;10.68;2.22;;;;;;;21.14;62.34;102599.56;5087240;28;20040;-47
2023/05/29 08:14:29;;;;;;;10.20;2.50;;;;;;;21.09;62.38;102604.84;5089271;28;20123;-48
2023/05/29 08:16:54;;;;;;;12.02;2.35;;;;;;;21.31;62.58;102599.16;5087685;28;20406;-46
2023/05/29 08:19:19;;;;;;;11.70;2.50;;;;;;;21.58;62.74;102587.13;5088098;28;20036;-45
2023/05/29 08:21:45;;;;;;;9.50;2.60;;;;;;;21.54;61.98;102596.88;5086466;28;20059;-46
2023/05/29 08:24:11;;;;;;;13.50;2.60;;;;;;;20.87;63.89;102606.06;5084465;28;20186;-47
2023/05/29 08:26:36;;;;;;;13.00;2.42;;;;;;;19.97;67.19;102602.53;5082859;28;20028;-46
2023/05/29 08:29:02;;;;;;;7.10;2.30;;;;;;;19.27;70.69;102595.09;5086036;28;20028;-45
2023/05/29 08:31:27;;;;;;;9.20;2.30;;;;;;;19.06;70.41;102598.69;5085305;28;20024;-46
2023/05/29 08:33:53;;;;;;;10.43;2.78;;;;;;;19.13;70.72;102600.63;5084923;28;20063;-47
2023/05/29 08:36:22;;;;;;;5.95;2.05;;;;;;;19.72;69.40;102600.28;5067036;28;20024;-50
2023/05/29 08:38:50;;;;;;;12.63;2.35;;;;;;;20.30;67.58;102600.81;5082949;28;20505;-45
2023/05/29 08:41:29;;;;;;;7.22;2.10;;;;;;;20.94;64.51;102606.94;5085168;28;20111;-46
2023/05/29 08:43:56;;;;;;;9.07;1.85;;;;;;;21.41;61.74;102607.84;5079458;28;20044;-46
2023/05/29 08:46:21;;;;;;;7.72;2.25;;;;;;;21.49;62.01;102610.34;5081189;28;20063;-46
2023/05/29 08:48:49;;;;;;;9.50;2.45;;;;;;;21.96;62.06;102610.25;5084275;28;20118;-47
2023/05/29 08:51:16;;;;;;;14.00;2.58;;;;;;;22.54;58.72;102608.38;5084205;28;20467;-46
2023/05/29 08:53:42;;;;;;;12.20;2.23;;;;;;;22.53;56.18;102617.66;5083704;28;20032;-46
2023/05/29 08:56:07;;;;;;;9.63;1.98;;;;;;;22.22;56.00;102620.31;5066348;28;20294;-46
2023/05/29 08:58:33;;;;;;;8.75;2.20;;;;;;;21.46;57.64;102617.09;5083687;28;20036;-45
2023/05/29 09:01:01;;;;;;;8.60;2.45;;;;;;;21.59;57.73;102610.75;5083889;28;20044;-48
2023/05/29 09:03:27;;;;;;;12.10;2.65;;;;;;;21.78;57.21;102619.16;5088100;28;20042;-46
2023/05/29 09:05:59;;;;;;;10.15;2.30;;;;;;;21.65;59.14;102615.38;5085250;28;20512;-46
2023/05/29 09:08:25;;;;;;;8.77;2.38;;;;;;;21.65;58.49;102611.81;5085253;28;20040;-44
2023/05/29 09:10:50;;;;;;;11.80;2.22;;;;;;;21.68;58.25;102606.72;5066943;28;20244;-46
2023/05/29 09:13:16;;;;;;;9.38;2.30;;;;;;;21.45;57.87;102614.56;5086024;28;20454;-44
2023/05/29 09:15:42;;;;;;;10.38;2.53;;;;;;;21.54;57.40;102613.28;5083524;28;20055;-45
2023/05/29 09:18:08;;;;;;;11.02;2.75;;;;;;;21.66;57.66;102617.06;5084675;28;20059;-45
2023/05/29 09:20:34;;;;;;;9.38;2.55;;;;;;;21.99;56.85;102615.31;5085587;28;20035;-47
2023/05/29 09:23:05;;;;;;;9.55;2.17;;;;;;;21.43;57.92;102612.03;5083411;28;20420;-46
2023/05/29 09:25:32;;;;;;;11.63;2.55;;;;;;;21.44;58.17;102618.34;5081240;28;20032;-45
2023/05/29 09:28:03;;;;;;;9.68;2.22;;;;;;;21.30;58.34;102602.94;5082885;28;20039;-46
2023/05/29 09:30:44;;;;;;;10.52;2.42;;;;;;;21.36;58.24;102613.06;5082945;28;20028;-46
2023/05/29 09:33:11;;;;;;;8.77;2.33;;;;;;;21.73;58.38;102619.81;5086262;28;20032;-45
2023/05/29 09:35:39;;;;;;;12.35;2.38;;;;;;;21.95;57.28;102617.63;5084495;28;20039;-47
2023/05/29 09:38:05;;;;;;;11.68;2.38;;;;;;;22.04;56.43;102612.78;5083387;28;20028;-46
2023/05/29 09:40:32;;;;;;;7.22;2.35;;;;;;;22.29;55.81;102615.66;5082991;28;20028;-46
2023/05/29 09:43:24;;;;;;;13.25;2.70;;;;;;;22.17;56.04;102606.38;5082044;28;20020;-46
2023/05/29 09:45:50;;;;;;;12.40;2.65;;;;;;;22.06;56.08;102606.00;5078033;28;20075;-45
2023/05/29 09:48:18;;;;;;;11.37;1.90;;;;;;;21.82;54.26;102596.56;5086320;28;20594;-45
2023/05/29 09:50:44;;;;;;;10.30;2.45;;;;;;;21.81;56.85;102602.28;5084405;28;20024;-47
2023/05/29 09:53:21;;;;;;;14.53;2.40;;;;;;;21.86;55.13;102588.78;5086519;28;20158;-46
2023/05/29 09:55:47;;;;;;;10.23;2.43;;;;;;;21.67;56.64;102596.84;5083022;28;20053;-44
2023/05/29 09:58:13;;;;;;;7.72;2.05;;;;;;;21.49;58.15;102593.91;5081937;28;21008;-45
2023/05/29 10:00:41;;;;;;;5.15;2.00;;;;;;;22.01;57.34;102596.75;5084153;28;20035;-45
2023/05/29 10:03:06;;;;;;;17.27;2.70;;;;;;;22.86;57.21;102589.19;5083082;28;20028;-46
2023/05/29 10:05:31;;;;;;;11.68;2.58;;;;;;;23.42;56.25;102588.31;5083761;28;20076;-47
2023/05/29 10:07:59;;;;;;;12.43;2.17;;;;;;;23.73;53.12;102588.50;5082701;28;20076;-47
2023/05/29 10:10:26;;;;;;;9.85;2.65;;;;;;;23.39;51.62;102587.94;5083547;28;20016;-45
2023/05/29 10:12:53;;;;;;;11.98;2.45;;;;;;;23.20;55.01;102589.81;5084244;28;20040;-46
2023/05/29 10:15:20;;;;;;;9.57;3.00;;;;;;;23.54;54.32;102593.06;5080482;28;20024;-46
2023/05/29 10:17:59;;;;;;;11.02;2.25;;;;;;;23.98;53.30;102585.66;5084187;28;20038;-44
2023/05/29 10:20:26;;;;;;;8.63;2.70;;;;;;;24.10;51.44;102592.09;5064025;28;20054;-44
2023/05/29 10:22:52;;;;;;;11.33;2.60;;;;;;;24.39;51.29;102592.38;5082509;28;20097;-45
2023/05/29 10:25:23;;;;;;;6.70;1.92;;;;;;;24.54;49.65;102595.59;5084206;28;20278;-44
2023/05/29 10:27:49;;;;;;;9.25;2.30;;;;;;;24.66;49.06;102588.19;5084582;28;20043;-45
2023/05/29 10:30:37;;;;;;;11.05;2.75;;;;;;;24.56;47.18;102601.66;5082548;28;20067;-46
2023/05/29 10:33:15;;;;;;;8.00;2.30;;;;;;;23.90;46.10;102605.22;5080986;28;20032;-47
2023/05/29 10:35:46;;;;;;;11.25;2.50;;;;;;;23.46;48.41;102594.22;5083233;28;20040;-44
2023/05/29 10:38:13;;;;;;;9.52;2.50;;;;;;;23.72;48.21;102598.63;5082034;28;20044;-46
2023/05/29 10:40:39;;;;;;;11.80;2.53;;;;;;;23.63;46.39;102591.72;5081814;28;20228;-48
2023/05/29 10:43:08;;;;;;;8.88;1.98;;;;;;;23.00;48.68;102578.97;5082209;28;20123;-45
2023/05/29 10:45:40;;;;;;;7.50;2.17;;;;;;;23.32;50.43;102587.16;5083285;28;20035;-43
2023/05/29 10:48:11;;;;;;;12.20;2.67;;;;;;;23.76;49.98;102575.13;5081989;28;20139;-45
2023/05/29 10:50:47;;;;;;;11.57;2.83;;;;;;;24.14;47.79;102582.28;5083025;28;20039;-44
2023/05/29 10:53:18;;;;;;;7.97;2.17;;;;;;;24.33;43.50;102583.13;5083401;28;20036;-47
2023/05/29 10:55:44;;;;;;;9.07;2.20;;;;;;;24.35;42.95;102577.38;5083276;28;20056;-43
2023/05/29 10:58:27;;;;;;;9.60;2.13;;;;;;;24.19;42.99;102576.09;5081770;28;20035;-45
2023/05/29 11:00:54;;;;;;;9.40;2.20;;;;;;;24.26;43.85;102576.88;5082426;28;20648;-49
2023/05/29 11:03:22;;;;;;;12.45;2.38;;;;;;;24.17;45.09;102568.09;5086176;28;20123;-43
2023/05/29 11:05:59;;;;;;;12.82;2.35;;;;;;;24.48;44.99;102574.47;5088160;28;20109;-46
2023/05/29 11:08:45;;;;;;;7.35;2.38;;;;;;;24.05;45.67;102575.44;5087412;28;20056;-45
2023/05/29 11:11:15;;;;;;;10.90;2.47;;;;;;;24.06;48.08;102577.09;5085289;28;20494;-46
2023/05/29 11:13:44;;;;;;;8.85;2.60;;;;;;;23.96;47.78;102571.28;5085935;28;20165;-47